Loop, Texas
Current Conditions -  °F | °C
As of 10:35 PM on Thursday 18 Dec 2014 (Local Time) from KGNC Reporting Station
Clear Clear  
Wind Chill: 43°   Ceiling: Unl
Heat Index: 47°   Visibility: 10mi
Dew Point: 35°   Wind: 8mph
Humidity: 62%   Direction: 90°E
Pressure: 30.11"   Gusts: NA
Location:  32.92°N, 102.42°W
Report Text: KGNC 190435Z AUTO 09007KT 10SM CLR 09/02 A3011 RMK AO2 T00850015
Loading
Personal Weather Stations






























Interactive Weather Map New forecast layout! Learn more

10-Day Weather Forecast

Advertisements
Track Severe Weather on mobile